createdAt,value
2019-03-24T00:01:24.524Z,80.12
2019-03-24T00:03:52.985Z,79.45
2019-03-24T00:06:21.363Z,86.50
2019-03-24T00:08:49.762Z,73.00
2019-03-24T00:11:18.147Z,72.05
2019-03-24T00:13:46.540Z,84.35
2019-03-24T00:16:14.929Z,77.97
2019-03-24T00:18:43.321Z,73.85
2019-03-24T00:21:11.713Z,68.07
2019-03-24T00:23:40.104Z,75.92
2019-03-24T00:26:08.490Z,79.03
2019-03-24T00:28:37.159Z,75.97
2019-03-24T00:31:06.049Z,73.67
2019-03-24T00:33:34.444Z,65.75
2019-03-24T00:36:02.824Z,75.10
2019-03-24T00:38:31.215Z,73.87
2019-03-24T00:40:59.604Z,66.55
2019-03-24T00:43:27.991Z,63.98
2019-03-24T00:45:56.385Z,76.10
2019-03-24T00:48:24.773Z,75.00
2019-03-24T00:50:53.158Z,76.35
2019-03-24T00:53:21.542Z,82.53
2019-03-24T00:55:49.928Z,77.27
2019-03-24T00:58:18.320Z,65.00
2019-03-24T01:00:48.640Z,65.32
2019-03-24T01:03:17.376Z,58.87
2019-03-24T01:05:45.924Z,74.27
2019-03-24T01:08:15.059Z,56.13
2019-03-24T01:10:43.512Z,74.58
2019-03-24T01:13:13.747Z,69.80
2019-03-24T01:15:47.777Z,72.60
2019-03-24T01:18:12.949Z,63.13
2019-03-24T01:20:41.342Z,60.28
2019-03-24T01:23:09.719Z,69.10
2019-03-24T01:25:38.115Z,67.72
2019-03-24T01:28:06.891Z,75.47
2019-03-24T01:30:35.280Z,71.97
2019-03-24T01:33:03.800Z,66.45
2019-03-24T01:35:32.191Z,72.15
2019-03-24T01:38:00.649Z,62.13
2019-03-24T01:40:29.070Z,73.92
2019-03-24T01:42:57.473Z,67.78
2019-03-24T01:45:25.865Z,74.42
2019-03-24T01:47:54.542Z,66.37
2019-03-24T01:50:22.936Z,68.75
2019-03-24T01:52:51.321Z,64.10
2019-03-24T01:55:19.732Z,79.05
2019-03-24T01:57:48.380Z,57.10
2019-03-24T02:00:16.843Z,77.10
2019-03-24T02:02:45.227Z,61.23
2019-03-24T02:05:13.839Z,79.37
2019-03-24T02:07:42.213Z,49.03
2019-03-24T02:10:10.843Z,64.87
2019-03-24T02:12:39.248Z,66.57
2019-03-24T02:15:08.668Z,68.07
2019-03-24T02:17:37.044Z,68.40
2019-03-24T02:20:06.989Z,66.22
2019-03-24T02:22:35.363Z,74.45
2019-03-24T02:25:05.301Z,77.75
2019-03-24T02:27:33.698Z,75.05
2019-03-24T02:30:02.104Z,72.00
2019-03-24T02:32:30.476Z,60.95
2019-03-24T02:34:58.864Z,67.27
2019-03-24T02:37:27.576Z,60.55
2019-03-24T02:39:55.960Z,71.67
2019-03-24T02:42:24.643Z,64.03
2019-03-24T02:44:53.036Z,69.53
2019-03-24T02:47:21.423Z,72.03
2019-03-24T02:49:50.099Z,49.30
2019-03-24T02:52:18.481Z,63.65
2019-03-24T02:54:46.869Z,68.47
2019-03-24T02:57:15.289Z,52.10
2019-03-24T02:59:43.648Z,53.35
2019-03-24T03:02:12.049Z,77.22
2019-03-24T03:04:40.436Z,59.50
2019-03-24T03:07:08.829Z,71.25
2019-03-24T03:09:37.203Z,71.60
2019-03-24T03:12:06.129Z,64.03
2019-03-24T03:14:34.507Z,68.00
2019-03-24T03:17:02.915Z,55.48
2019-03-24T03:19:31.296Z,55.48
2019-03-24T03:21:59.868Z,74.62
2019-03-24T03:24:28.455Z,70.15
2019-03-24T03:26:56.859Z,63.58
2019-03-24T03:29:25.245Z,66.10
2019-03-24T03:31:53.637Z,62.17
2019-03-24T03:34:22.030Z,77.53
2019-03-24T03:36:50.421Z,50.55
2019-03-24T03:39:18.805Z,65.83
2019-03-24T03:41:47.203Z,77.35
2019-03-24T03:44:15.888Z,62.67
2019-03-24T03:46:52.389Z,76.92
2019-03-24T03:49:14.397Z,73.55
2019-03-24T03:51:43.182Z,78.42
2019-03-24T03:54:11.605Z,71.28
2019-03-24T03:56:40.051Z,53.48
2019-03-24T03:59:08.433Z,83.75
2019-03-24T04:01:36.824Z,63.02
2019-03-24T04:04:05.222Z,79.20
2019-03-24T04:06:33.597Z,85.75
2019-03-24T04:09:01.998Z,72.45
2019-03-24T04:11:30.369Z,74.37
2019-03-24T04:13:58.773Z,79.50
2019-03-24T04:16:27.156Z,60.40
2019-03-24T04:18:55.545Z,69.30
2019-03-24T04:21:23.924Z,70.30
2019-03-24T04:23:52.638Z,68.62
2019-03-24T04:26:21.013Z,85.85
2019-03-24T04:28:49.404Z,70.35
2019-03-24T04:31:17.784Z,69.20
2019-03-24T04:33:46.173Z,61.37
2019-03-24T04:36:14.555Z,64.25
2019-03-24T04:38:42.983Z,61.88
2019-03-24T04:41:11.348Z,76.70
2019-03-24T04:43:39.728Z,66.25
2019-03-24T04:46:08.128Z,67.82
2019-03-24T04:48:36.848Z,85.67
2019-03-24T04:51:05.741Z,52.60
2019-03-24T04:53:34.120Z,40.48
2019-03-24T04:56:02.527Z,71.35
2019-03-24T04:58:30.904Z,70.28
2019-03-24T05:00:59.291Z,65.12
2019-03-24T05:03:27.710Z,80.67
2019-03-24T05:05:56.258Z,74.55
2019-03-24T05:08:25.471Z,73.05
2019-03-24T05:10:53.863Z,60.17
2019-03-24T05:13:22.247Z,85.55
2019-03-24T05:15:50.631Z,72.00
2019-03-24T05:18:19.030Z,92.60
2019-03-24T05:20:47.421Z,88.10
2019-03-24T05:23:15.798Z,82.55
2019-03-24T05:25:44.185Z,84.40
2019-03-24T05:28:12.572Z,74.00
2019-03-24T05:30:40.963Z,93.72
2019-03-24T05:33:09.352Z,88.00
2019-03-24T05:35:37.743Z,71.87
2019-03-24T05:38:06.131Z,62.27
2019-03-24T05:40:34.519Z,83.00
2019-03-24T05:43:03.167Z,89.47
2019-03-24T05:45:31.548Z,78.78
2019-03-24T05:47:59.928Z,89.95
2019-03-24T05:50:28.319Z,76.55
2019-03-24T05:52:56.699Z,76.77
2019-03-24T05:55:25.104Z,65.80
2019-03-24T05:57:53.490Z,94.67
2019-03-24T06:00:21.867Z,77.00
2019-03-24T06:02:50.266Z,85.77
2019-03-24T06:05:18.650Z,70.28
2019-03-24T06:07:47.046Z,85.57
2019-03-24T06:10:16.257Z,75.85
2019-03-24T06:12:44.652Z,56.83
2019-03-24T06:15:13.372Z,89.32
2019-03-24T06:17:47.867Z,89.00
2019-03-24T06:20:12.026Z,76.45
2019-03-24T06:22:40.415Z,85.25
2019-03-24T06:25:09.236Z,79.47
2019-03-24T06:27:37.702Z,80.50
2019-03-24T06:30:08.025Z,79.45
2019-03-24T06:32:36.423Z,73.10
2019-03-24T06:35:06.417Z,57.45
2019-03-24T06:37:34.818Z,74.22
2019-03-24T06:40:04.061Z,72.70
2019-03-24T06:42:32.460Z,79.67
2019-03-24T06:45:00.846Z,67.85
2019-03-24T06:47:29.240Z,73.75
2019-03-24T06:49:57.620Z,74.45
2019-03-24T06:52:26.102Z,65.45
2019-03-24T06:54:54.481Z,62.40
2019-03-24T06:57:22.871Z,69.07
2019-03-24T06:59:51.252Z,66.70
2019-03-24T07:02:19.649Z,67.05
2019-03-24T07:04:48.032Z,62.80
2019-03-24T07:07:16.700Z,72.27
2019-03-24T07:09:45.077Z,69.40
2019-03-24T07:12:13.491Z,61.73
2019-03-24T07:14:41.868Z,60.30
2019-03-24T07:17:10.253Z,69.05
2019-03-24T07:19:38.687Z,71.40
2019-03-24T07:22:07.359Z,62.75
2019-03-24T07:24:35.848Z,63.38
2019-03-24T07:27:04.223Z,58.73
2019-03-24T07:29:32.617Z,70.67
2019-03-24T07:32:01.004Z,66.92
2019-03-24T07:34:29.693Z,76.05
2019-03-24T07:36:58.309Z,77.45
2019-03-24T07:39:26.968Z,70.95
2019-03-24T07:41:55.347Z,62.75
2019-03-24T07:44:23.749Z,63.00
2019-03-24T07:46:52.140Z,63.85
2019-03-24T07:49:20.532Z,66.57
2019-03-24T07:51:48.916Z,59.73
2019-03-24T07:54:17.315Z,61.50
2019-03-24T07:56:45.696Z,62.85
2019-03-24T07:59:14.108Z,66.00
2019-03-24T08:01:42.483Z,66.80
2019-03-24T08:04:10.885Z,63.08
2019-03-24T08:06:39.348Z,64.70
2019-03-24T08:09:07.748Z,67.30
2019-03-24T08:11:36.426Z,65.67
2019-03-24T08:14:05.084Z,78.78
2019-03-24T08:16:33.475Z,64.27
2019-03-24T08:19:01.867Z,68.83
2019-03-24T08:21:30.251Z,65.32
2019-03-24T08:23:58.647Z,68.05
2019-03-24T08:26:27.041Z,69.87
2019-03-24T08:28:55.446Z,61.48
2019-03-24T08:31:23.840Z,69.30
2019-03-24T08:33:52.228Z,71.37
2019-03-24T08:36:20.625Z,67.78
2019-03-24T08:38:49.511Z,63.60
2019-03-24T08:41:17.904Z,62.23
2019-03-24T08:43:46.288Z,70.78
2019-03-24T08:46:14.722Z,77.67
2019-03-24T08:48:43.151Z,63.15
2019-03-24T08:51:11.839Z,60.60
2019-03-24T08:53:40.216Z,60.50
2019-03-24T08:56:08.616Z,67.55
2019-03-24T08:58:37.009Z,63.60
2019-03-24T09:01:05.419Z,63.80
2019-03-24T09:03:33.809Z,61.55
2019-03-24T09:06:02.276Z,59.50
2019-03-24T09:08:30.664Z,58.52
2019-03-24T09:10:59.054Z,56.48
2019-03-24T09:13:27.444Z,62.60
2019-03-24T09:15:55.851Z,60.85
2019-03-24T09:18:24.228Z,57.40
2019-03-24T09:20:52.624Z,55.65
2019-03-24T09:23:21.012Z,57.88
2019-03-24T09:25:49.976Z,59.15
2019-03-24T09:28:18.364Z,58.15
2019-03-24T09:30:46.764Z,60.55
2019-03-24T09:33:15.152Z,50.92
2019-03-24T09:35:43.548Z,52.70
2019-03-24T09:38:11.931Z,56.20
2019-03-24T09:40:40.332Z,57.27
2019-03-24T09:43:08.719Z,50.73
2019-03-24T09:45:37.296Z,49.60
2019-03-24T09:48:06.024Z,48.48
2019-03-24T09:50:34.415Z,53.87
2019-03-24T09:53:02.884Z,53.87
2019-03-24T09:55:31.330Z,49.15
2019-03-24T09:57:59.807Z,55.85
2019-03-24T10:00:28.206Z,55.35
2019-03-24T10:02:56.672Z,50.85
2019-03-24T10:05:25.055Z,50.83
2019-03-24T10:07:53.459Z,52.13
2019-03-24T10:10:21.842Z,50.65
2019-03-24T10:12:50.243Z,49.40
2019-03-24T10:15:18.629Z,56.92
2019-03-24T10:17:47.026Z,54.08
2019-03-24T10:20:15.487Z,53.92
2019-03-24T10:22:43.875Z,46.05
2019-03-24T10:25:12.266Z,49.65
2019-03-24T10:27:40.661Z,54.67
2019-03-24T10:30:09.502Z,51.90
2019-03-24T10:32:37.889Z,54.03
2019-03-24T10:35:07.546Z,44.05
2019-03-24T10:37:35.940Z,51.25
2019-03-24T10:40:06.067Z,42.65
2019-03-24T10:42:34.472Z,45.55
2019-03-24T10:45:02.928Z,45.12
2019-03-24T10:47:31.354Z,54.03
2019-03-24T10:49:59.789Z,51.23
2019-03-24T10:52:28.183Z,42.85
2019-03-24T10:54:56.580Z,46.40
2019-03-24T10:57:24.976Z,45.33
2019-03-24T10:59:53.368Z,47.53
2019-03-24T11:02:21.763Z,50.23
2019-03-24T11:04:50.152Z,51.40
2019-03-24T11:07:18.550Z,46.35
2019-03-24T11:09:46.932Z,43.48
2019-03-24T11:12:15.347Z,42.20
2019-03-24T11:14:43.729Z,49.48
2019-03-24T11:17:12.112Z,43.70
2019-03-24T11:19:40.507Z,51.35
2019-03-24T11:22:08.898Z,41.98
2019-03-24T11:24:37.292Z,43.17
2019-03-24T11:27:05.679Z,42.80
2019-03-24T11:29:34.079Z,44.08
2019-03-24T11:32:02.527Z,43.10
2019-03-24T11:34:30.924Z,51.10
2019-03-24T11:36:59.308Z,47.98
2019-03-24T11:39:27.706Z,46.80
2019-03-24T11:41:56.091Z,46.70
2019-03-24T11:44:24.561Z,47.10
2019-03-24T11:46:53.176Z,49.00
2019-03-24T11:49:21.574Z,44.75
2019-03-24T11:51:49.961Z,43.33
2019-03-24T11:54:18.359Z,48.17
2019-03-24T11:56:46.739Z,44.40
2019-03-24T11:59:15.124Z,47.78
2019-03-24T12:01:43.527Z,49.63
2019-03-24T12:04:11.913Z,41.28
2019-03-24T12:06:40.313Z,48.78
2019-03-24T12:09:08.692Z,50.80
2019-03-24T12:11:37.092Z,57.55
2019-03-24T12:14:05.492Z,47.53
2019-03-24T12:16:33.952Z,44.40
2019-03-24T12:19:02.344Z,46.42
2019-03-24T12:21:31.023Z,50.30
2019-03-24T12:23:59.418Z,48.58
2019-03-24T12:26:27.812Z,49.55
2019-03-24T12:28:56.201Z,41.02
2019-03-24T12:31:24.596Z,44.90
2019-03-24T12:33:52.975Z,50.10
2019-03-24T12:36:21.716Z,47.88
2019-03-24T12:38:50.109Z,46.83
2019-03-24T12:41:18.780Z,44.35
2019-03-24T12:43:47.175Z,46.77
2019-03-24T12:46:15.572Z,46.80
2019-03-24T12:48:43.959Z,46.02
2019-03-24T12:51:12.613Z,50.83
2019-03-24T12:53:41.000Z,43.83
2019-03-24T12:56:09.404Z,44.15
2019-03-24T12:58:37.788Z,40.23
2019-03-24T13:01:06.440Z,46.20
2019-03-24T13:03:35.900Z,45.20
2019-03-24T13:06:04.746Z,43.17
2019-03-24T13:08:33.135Z,45.28
2019-03-24T13:11:01.531Z,54.20
2019-03-24T13:13:29.920Z,47.23
2019-03-24T13:15:58.314Z,41.68
2019-03-24T13:18:26.703Z,44.35
2019-03-24T13:20:55.109Z,42.85
2019-03-24T13:23:23.489Z,44.20
2019-03-24T13:25:51.881Z,43.78
2019-03-24T13:28:20.274Z,39.75
2019-03-24T13:30:48.667Z,42.55
2019-03-24T13:33:17.059Z,47.43
2019-03-24T13:35:45.447Z,43.13
2019-03-24T13:38:13.848Z,47.10
2019-03-24T13:40:42.242Z,47.08
2019-03-24T13:43:10.640Z,50.17
2019-03-24T13:45:39.022Z,45.73
2019-03-24T13:48:07.413Z,45.78
2019-03-24T13:50:35.804Z,49.85
2019-03-24T13:53:04.676Z,49.65
2019-03-24T13:55:33.060Z,46.35
2019-03-24T13:58:01.729Z,47.40
2019-03-24T14:00:30.187Z,46.37
2019-03-24T14:02:58.658Z,57.88
2019-03-24T14:05:27.046Z,53.13
2019-03-24T14:07:55.440Z,46.48
2019-03-24T14:10:23.828Z,44.55
2019-03-24T14:12:52.227Z,49.77
2019-03-24T14:15:20.622Z,49.03
2019-03-24T14:17:49.021Z,54.25
2019-03-24T14:20:17.480Z,58.42
2019-03-24T14:22:45.882Z,53.00
2019-03-24T14:25:14.268Z,53.65
2019-03-24T14:27:42.655Z,46.00
2019-03-24T14:30:11.593Z,55.35
2019-03-24T14:32:39.990Z,52.80
2019-03-24T14:35:08.723Z,51.40
2019-03-24T14:37:37.114Z,51.02
2019-03-24T14:40:06.154Z,57.58
2019-03-24T14:42:34.537Z,44.90
2019-03-24T14:45:03.015Z,49.88
2019-03-24T14:47:31.704Z,51.65
2019-03-24T14:50:00.120Z,52.73
2019-03-24T14:52:28.782Z,51.60
2019-03-24T14:54:57.208Z,52.48
2019-03-24T14:57:25.591Z,51.40
2019-03-24T14:59:53.992Z,44.58
2019-03-24T15:02:22.707Z,50.63
2019-03-24T15:04:51.096Z,42.70
2019-03-24T15:07:19.492Z,43.40
2019-03-24T15:09:47.883Z,48.63
2019-03-24T15:12:16.271Z,47.13
2019-03-24T15:14:44.668Z,50.75
2019-03-24T15:17:13.064Z,47.85
2019-03-24T15:19:41.476Z,45.17
2019-03-24T15:22:09.868Z,47.50
2019-03-24T15:24:38.263Z,46.83
2019-03-24T15:27:06.744Z,41.53
2019-03-24T15:29:35.149Z,50.70
2019-03-24T15:32:03.531Z,45.73
2019-03-24T15:34:31.935Z,41.30
2019-03-24T15:37:00.321Z,46.48
2019-03-24T15:39:28.711Z,42.30
2019-03-24T15:41:57.094Z,44.80
2019-03-24T15:44:25.477Z,39.50
2019-03-24T15:46:53.891Z,44.15
2019-03-24T15:49:22.256Z,33.98
2019-03-24T15:51:50.662Z,40.03
2019-03-24T15:54:19.045Z,34.55
2019-03-24T15:56:47.450Z,37.23
2019-03-24T15:59:15.817Z,36.40
2019-03-24T16:01:44.216Z,37.53
2019-03-24T16:04:12.609Z,36.70
2019-03-24T16:06:41.000Z,31.77
2019-03-24T16:09:09.684Z,32.58
2019-03-24T16:11:38.163Z,27.35
2019-03-24T16:14:06.552Z,29.48
2019-03-24T16:16:34.965Z,37.08
2019-03-24T16:19:03.335Z,36.28
2019-03-24T16:21:31.728Z,31.93
2019-03-24T16:24:00.124Z,30.62
2019-03-24T16:26:28.526Z,28.92
2019-03-24T16:28:56.908Z,36.50
2019-03-24T16:31:25.300Z,37.78
2019-03-24T16:33:53.684Z,30.62
2019-03-24T16:36:22.100Z,29.50
2019-03-24T16:38:50.472Z,34.05
2019-03-24T16:41:18.951Z,32.10
2019-03-24T16:43:53.351Z,34.95
2019-03-24T16:46:21.743Z,32.73
2019-03-24T16:48:50.132Z,37.35
2019-03-24T16:51:18.657Z,36.38
2019-03-24T16:53:47.043Z,33.38
2019-03-24T16:56:15.448Z,33.80
2019-03-24T16:58:43.844Z,38.23
2019-03-24T17:01:12.252Z,31.40
2019-03-24T17:03:40.660Z,35.17
2019-03-24T17:06:10.145Z,32.20
2019-03-24T17:08:38.712Z,32.90
2019-03-24T17:11:07.336Z,31.75
2019-03-24T17:13:35.724Z,33.08
2019-03-24T17:16:04.118Z,25.75
2019-03-24T17:18:32.736Z,25.43
2019-03-24T17:21:01.236Z,28.32
2019-03-24T17:23:29.623Z,22.30
2019-03-24T17:25:58.008Z,27.40
2019-03-24T17:28:26.441Z,24.92
2019-03-24T17:30:54.817Z,29.45
2019-03-24T17:33:23.200Z,22.25
2019-03-24T17:35:51.584Z,23.22
2019-03-24T17:38:19.975Z,21.10
2019-03-24T17:40:48.364Z,21.17
2019-03-24T17:43:16.830Z,21.05
2019-03-24T17:45:45.216Z,16.62
2019-03-24T17:48:13.611Z,19.05
2019-03-24T17:50:41.996Z,16.70
2019-03-24T17:53:10.397Z,18.20
2019-03-24T17:55:38.786Z,18.67
2019-03-24T17:58:07.191Z,16.57
2019-03-24T18:00:41.433Z,16.65
2019-03-24T18:03:09.971Z,17.52
2019-03-24T18:05:38.348Z,14.93
2019-03-24T18:08:06.748Z,16.75
2019-03-24T18:10:35.131Z,19.57
2019-03-24T18:13:03.592Z,17.87
2019-03-24T18:15:31.979Z,17.55
2019-03-24T18:18:00.376Z,18.00
2019-03-24T18:20:30.897Z,17.17
2019-03-24T18:22:59.299Z,15.20
2019-03-24T18:25:27.760Z,15.85
2019-03-24T18:27:56.220Z,13.68
2019-03-24T18:30:25.239Z,19.05
2019-03-24T18:32:53.997Z,13.55
2019-03-24T18:35:22.375Z,16.02
2019-03-24T18:37:51.135Z,14.15
2019-03-24T18:40:19.587Z,13.95
2019-03-24T18:42:47.973Z,13.78
2019-03-24T18:45:17.023Z,14.10
2019-03-24T18:47:45.391Z,14.18
2019-03-24T18:50:14.529Z,16.30
2019-03-24T18:52:43.168Z,15.80
2019-03-24T18:55:11.624Z,15.90
2019-03-24T18:57:40.011Z,16.25
2019-03-24T19:00:13.089Z,20.23
2019-03-24T19:02:41.471Z,19.30
2019-03-24T19:05:10.319Z,17.45
2019-03-24T19:07:38.706Z,19.65
2019-03-24T19:10:09.514Z,18.60
2019-03-24T19:12:37.972Z,21.17
2019-03-24T19:15:08.404Z,19.92
2019-03-24T19:17:36.855Z,20.05
2019-03-24T19:20:06.300Z,26.57
2019-03-24T19:22:34.687Z,21.77
2019-03-24T19:25:05.420Z,17.52
2019-03-24T19:27:33.810Z,23.62
2019-03-24T19:30:02.471Z,26.62
2019-03-24T19:32:30.852Z,25.48
2019-03-24T19:34:59.324Z,26.42
2019-03-24T19:37:27.876Z,22.93
2019-03-24T19:39:56.277Z,28.42
2019-03-24T19:42:24.663Z,25.85
2019-03-24T19:44:53.380Z,33.78
2019-03-24T19:47:21.765Z,28.50
2019-03-24T19:49:50.176Z,29.98
2019-03-24T19:52:18.560Z,29.95
2019-03-24T19:54:46.952Z,33.28
2019-03-24T19:57:15.355Z,31.30
2019-03-24T19:59:44.177Z,35.50
2019-03-24T20:02:12.565Z,34.58
2019-03-24T20:04:40.952Z,34.10
2019-03-24T20:07:09.347Z,28.27
2019-03-24T20:09:37.737Z,30.45
2019-03-24T20:12:06.127Z,29.42
2019-03-24T20:14:34.510Z,33.15
2019-03-24T20:17:02.931Z,37.50
2019-03-24T20:19:31.291Z,34.58
2019-03-24T20:21:59.693Z,36.63
2019-03-24T20:24:28.080Z,32.13
2019-03-24T20:26:56.476Z,30.97
2019-03-24T20:29:25.000Z,31.75
2019-03-24T20:31:53.399Z,32.73
2019-03-24T20:34:21.777Z,33.65
2019-03-24T20:36:50.180Z,37.45
2019-03-24T20:39:18.582Z,35.50
2019-03-24T20:41:46.961Z,30.70
2019-03-24T20:44:15.348Z,33.63
2019-03-24T20:46:43.748Z,32.55
2019-03-24T20:49:12.136Z,34.80
2019-03-24T20:51:40.532Z,32.50
2019-03-24T20:54:08.910Z,32.45
2019-03-24T20:56:37.323Z,25.05
2019-03-24T20:59:05.691Z,34.92
2019-03-24T21:01:34.095Z,31.87
2019-03-24T21:04:02.488Z,31.25
2019-03-24T21:06:30.882Z,29.02
2019-03-24T21:08:59.274Z,34.70
2019-03-24T21:11:27.703Z,31.07
2019-03-24T21:13:56.064Z,30.45
2019-03-24T21:16:25.559Z,31.57
2019-03-24T21:18:54.064Z,31.33
2019-03-24T21:21:22.499Z,33.10
2019-03-24T21:23:50.885Z,31.45
2019-03-24T21:26:19.289Z,31.33
2019-03-24T21:28:47.672Z,33.28
2019-03-24T21:31:16.074Z,30.55
2019-03-24T21:33:44.465Z,28.65
2019-03-24T21:36:12.878Z,27.17
2019-03-24T21:38:41.264Z,26.70
2019-03-24T21:41:09.657Z,29.40
2019-03-24T21:43:38.042Z,27.30
2019-03-24T21:46:06.415Z,33.50
2019-03-24T21:48:34.812Z,31.37
2019-03-24T21:51:03.209Z,31.68
2019-03-24T21:53:40.350Z,27.52
2019-03-24T21:56:01.736Z,29.42
2019-03-24T21:58:30.137Z,33.58
2019-03-24T22:00:58.519Z,26.82
2019-03-24T22:03:26.923Z,32.55
2019-03-24T22:05:55.313Z,34.38
2019-03-24T22:08:23.708Z,27.30
2019-03-24T22:10:52.092Z,30.70
2019-03-24T22:13:20.499Z,26.42
2019-03-24T22:15:48.879Z,28.90
2019-03-24T22:18:17.289Z,24.92
2019-03-24T22:20:49.072Z,25.97
2019-03-24T22:23:15.791Z,27.02
2019-03-24T22:25:44.181Z,22.67
2019-03-24T22:28:12.588Z,26.60
2019-03-24T22:30:40.988Z,21.40
2019-03-24T22:33:09.385Z,20.25
2019-03-24T22:35:37.768Z,19.27
2019-03-24T22:38:06.154Z,17.62
2019-03-24T22:40:34.535Z,20.25
2019-03-24T22:43:02.929Z,18.10
2019-03-24T22:45:31.588Z,17.10
2019-03-24T22:47:59.983Z,15.15
2019-03-24T22:50:28.364Z,23.50
2019-03-24T22:52:56.756Z,20.68
2019-03-24T22:55:25.143Z,19.55
2019-03-24T22:57:53.543Z,19.65
2019-03-24T23:00:23.735Z,17.98
2019-03-24T23:02:52.110Z,19.90
2019-03-24T23:05:20.504Z,20.32
2019-03-24T23:07:48.889Z,19.90
2019-03-24T23:10:17.286Z,18.75
2019-03-24T23:12:45.671Z,24.27
2019-03-24T23:15:14.132Z,21.90
2019-03-24T23:17:42.588Z,20.20
2019-03-24T23:20:11.228Z,19.90
2019-03-24T23:22:39.620Z,21.57
2019-03-24T23:25:08.148Z,17.92
2019-03-24T23:27:36.539Z,19.10
2019-03-24T23:30:08.374Z,23.18
2019-03-24T23:32:36.755Z,22.30
2019-03-24T23:35:06.992Z,18.20
2019-03-24T23:37:35.376Z,20.08
2019-03-24T23:40:05.680Z,18.20
2019-03-24T23:42:34.130Z,16.77
2019-03-24T23:45:02.524Z,20.27
2019-03-24T23:47:31.232Z,17.70
2019-03-24T23:49:59.625Z,22.73
2019-03-24T23:52:28.025Z,20.85
2019-03-24T23:54:56.678Z,16.27
2019-03-24T23:57:25.052Z,20.10
2019-03-24T23:59:53.445Z,19.90
